sensor_id;sensor_type;location;lat;lon;timestamp;P1;durP1;ratioP1;P2;durP2;ratioP2
71513;SDS011;59335;46.652;21.272;2023-03-03T00:00:29;13.23;;;8.18;;
71513;SDS011;59335;46.652;21.272;2023-03-03T00:03:32;13.93;;;7.68;;
71513;SDS011;59335;46.652;21.272;2023-03-03T00:06:35;12.70;;;8.10;;
71513;SDS011;59335;46.652;21.272;2023-03-03T00:09:39;13.70;;;8.25;;
71513;SDS011;59335;46.652;21.272;2023-03-03T00:12:46;13.10;;;8.70;;
71513;SDS011;59335;46.652;21.272;2023-03-03T00:15:50;14.40;;;7.90;;
71513;SDS011;59335;46.652;21.272;2023-03-03T00:18:54;14.30;;;8.60;;
71513;SDS011;59335;46.652;21.272;2023-03-03T00:21:57;12.85;;;8.20;;
71513;SDS011;59335;46.652;21.272;2023-03-03T00:25:20;13.85;;;8.60;;
71513;SDS011;59335;46.652;21.272;2023-03-03T00:28:41;11.73;;;7.90;;
71513;SDS011;59335;46.652;21.272;2023-03-03T00:31:48;13.77;;;7.95;;
71513;SDS011;59335;46.652;21.272;2023-03-03T00:34:52;11.68;;;7.10;;
71513;SDS011;59335;46.652;21.272;2023-03-03T00:37:58;12.63;;;7.32;;
71513;SDS011;59335;46.652;21.272;2023-03-03T00:41:03;14.60;;;8.23;;
71513;SDS011;59335;46.652;21.272;2023-03-03T00:47:40;13.88;;;7.80;;
71513;SDS011;59335;46.652;21.272;2023-03-03T00:50:44;12.32;;;7.72;;
71513;SDS011;59335;46.652;21.272;2023-03-03T00:53:47;13.27;;;7.50;;
71513;SDS011;59335;46.652;21.272;2023-03-03T00:56:51;12.00;;;7.80;;
71513;SDS011;59335;46.652;21.272;2023-03-03T00:59:54;13.10;;;8.07;;
71513;SDS011;59335;46.652;21.272;2023-03-03T01:02:59;12.40;;;7.38;;
71513;SDS011;59335;46.652;21.272;2023-03-03T01:06:05;11.07;;;7.22;;
71513;SDS011;59335;46.652;21.272;2023-03-03T01:09:09;11.85;;;7.10;;
71513;SDS011;59335;46.652;21.272;2023-03-03T01:12:11;11.85;;;7.32;;
71513;SDS011;59335;46.652;21.272;2023-03-03T01:15:14;11.90;;;7.37;;
71513;SDS011;59335;46.652;21.272;2023-03-03T01:18:17;10.52;;;7.25;;
71513;SDS011;59335;46.652;21.272;2023-03-03T01:21:20;12.65;;;7.40;;
71513;SDS011;59335;46.652;21.272;2023-03-03T01:24:23;11.63;;;6.82;;
71513;SDS011;59335;46.652;21.272;2023-03-03T01:27:26;12.27;;;7.38;;
71513;SDS011;59335;46.652;21.272;2023-03-03T01:30:30;11.77;;;7.47;;
71513;SDS011;59335;46.652;21.272;2023-03-03T01:33:33;12.32;;;7.40;;
71513;SDS011;59335;46.652;21.272;2023-03-03T01:36:36;12.65;;;7.60;;
71513;SDS011;59335;46.652;21.272;2023-03-03T01:39:39;11.02;;;7.32;;
71513;SDS011;59335;46.652;21.272;2023-03-03T01:42:42;12.30;;;7.45;;
71513;SDS011;59335;46.652;21.272;2023-03-03T01:48:51;12.30;;;7.05;;
71513;SDS011;59335;46.652;21.272;2023-03-03T01:52:00;12.68;;;7.45;;
71513;SDS011;59335;46.652;21.272;2023-03-03T01:55:12;11.35;;;7.00;;
71513;SDS011;59335;46.652;21.272;2023-03-03T01:58:22;12.38;;;7.30;;
71513;SDS011;59335;46.652;21.272;2023-03-03T02:01:32;11.20;;;7.10;;
71513;SDS011;59335;46.652;21.272;2023-03-03T02:04:36;11.52;;;7.55;;
71513;SDS011;59335;46.652;21.272;2023-03-03T02:07:38;11.70;;;7.18;;
71513;SDS011;59335;46.652;21.272;2023-03-03T02:10:42;11.68;;;6.80;;
71513;SDS011;59335;46.652;21.272;2023-03-03T02:13:47;12.85;;;7.00;;
71513;SDS011;59335;46.652;21.272;2023-03-03T02:16:50;11.47;;;7.10;;
71513;SDS011;59335;46.652;21.272;2023-03-03T02:20:00;10.60;;;6.68;;
71513;SDS011;59335;46.652;21.272;2023-03-03T02:26:36;11.02;;;7.10;;
71513;SDS011;59335;46.652;21.272;2023-03-03T02:29:44;12.02;;;7.47;;
71513;SDS011;59335;46.652;21.272;2023-03-03T02:32:46;9.73;;;6.83;;
71513;SDS011;59335;46.652;21.272;2023-03-03T02:35:49;11.38;;;6.82;;
71513;SDS011;59335;46.652;21.272;2023-03-03T02:45:29;11.90;;;7.30;;
71513;SDS011;59335;46.652;21.272;2023-03-03T02:48:32;12.60;;;6.80;;
71513;SDS011;59335;46.652;21.272;2023-03-03T02:51:35;10.73;;;7.18;;
71513;SDS011;59335;46.652;21.272;2023-03-03T02:54:39;11.38;;;6.68;;
71513;SDS011;59335;46.652;21.272;2023-03-03T02:57:42;12.40;;;7.30;;
71513;SDS011;59335;46.652;21.272;2023-03-03T03:00:44;11.82;;;6.95;;
71513;SDS011;59335;46.652;21.272;2023-03-03T03:03:52;11.87;;;6.90;;
71513;SDS011;59335;46.652;21.272;2023-03-03T03:06:57;10.93;;;6.97;;
71513;SDS011;59335;46.652;21.272;2023-03-03T03:10:02;11.40;;;7.20;;
71513;SDS011;59335;46.652;21.272;2023-03-03T03:13:08;12.45;;;7.50;;
71513;SDS011;59335;46.652;21.272;2023-03-03T03:16:11;10.98;;;7.20;;
71513;SDS011;59335;46.652;21.272;2023-03-03T03:19:14;10.63;;;6.43;;
71513;SDS011;59335;46.652;21.272;2023-03-03T03:22:18;10.77;;;6.88;;
71513;SDS011;59335;46.652;21.272;2023-03-03T03:25:21;12.18;;;7.50;;
71513;SDS011;59335;46.652;21.272;2023-03-03T03:28:23;10.43;;;6.85;;
71513;SDS011;59335;46.652;21.272;2023-03-03T03:31:26;11.25;;;6.85;;
71513;SDS011;59335;46.652;21.272;2023-03-03T03:34:29;11.17;;;6.67;;
71513;SDS011;59335;46.652;21.272;2023-03-03T03:37:32;10.73;;;6.40;;
71513;SDS011;59335;46.652;21.272;2023-03-03T03:40:35;11.68;;;7.75;;
71513;SDS011;59335;46.652;21.272;2023-03-03T03:43:39;11.38;;;6.97;;
71513;SDS011;59335;46.652;21.272;2023-03-03T03:46:42;10.63;;;6.82;;
71513;SDS011;59335;46.652;21.272;2023-03-03T03:49:45;10.93;;;6.67;;
71513;SDS011;59335;46.652;21.272;2023-03-03T03:52:49;11.20;;;6.90;;
71513;SDS011;59335;46.652;21.272;2023-03-03T03:55:59;10.88;;;6.85;;
71513;SDS011;59335;46.652;21.272;2023-03-03T03:59:04;10.55;;;6.70;;
71513;SDS011;59335;46.652;21.272;2023-03-03T04:02:08;11.98;;;7.28;;
71513;SDS011;59335;46.652;21.272;2023-03-03T04:05:11;9.07;;;6.17;;
71513;SDS011;59335;46.652;21.272;2023-03-03T04:08:14;11.63;;;7.20;;
71513;SDS011;59335;46.652;21.272;2023-03-03T04:11:18;9.80;;;6.53;;
71513;SDS011;59335;46.652;21.272;2023-03-03T04:14:21;10.50;;;6.82;;
71513;SDS011;59335;46.652;21.272;2023-03-03T04:17:24;10.63;;;6.78;;
71513;SDS011;59335;46.652;21.272;2023-03-03T04:20:27;11.47;;;7.00;;
71513;SDS011;59335;46.652;21.272;2023-03-03T04:23:31;10.63;;;6.68;;
71513;SDS011;59335;46.652;21.272;2023-03-03T04:26:35;11.60;;;6.82;;
71513;SDS011;59335;46.652;21.272;2023-03-03T04:29:39;10.55;;;6.90;;
71513;SDS011;59335;46.652;21.272;2023-03-03T04:32:43;9.85;;;6.30;;
71513;SDS011;59335;46.652;21.272;2023-03-03T04:35:47;10.23;;;6.30;;
71513;SDS011;59335;46.652;21.272;2023-03-03T04:38:50;10.02;;;6.25;;
71513;SDS011;59335;46.652;21.272;2023-03-03T04:41:55;10.32;;;6.57;;
71513;SDS011;59335;46.652;21.272;2023-03-03T04:44:58;10.38;;;6.63;;
71513;SDS011;59335;46.652;21.272;2023-03-03T04:48:01;10.80;;;6.72;;
71513;SDS011;59335;46.652;21.272;2023-03-03T04:51:05;11.70;;;6.83;;
71513;SDS011;59335;46.652;21.272;2023-03-03T04:54:09;8.88;;;6.22;;
71513;SDS011;59335;46.652;21.272;2023-03-03T04:57:12;9.70;;;6.18;;
71513;SDS011;59335;46.652;21.272;2023-03-03T05:00:15;10.43;;;6.85;;
71513;SDS011;59335;46.652;21.272;2023-03-03T05:03:18;10.30;;;6.72;;
71513;SDS011;59335;46.652;21.272;2023-03-03T05:06:21;10.73;;;6.50;;
71513;SDS011;59335;46.652;21.272;2023-03-03T05:09:23;11.50;;;6.60;;
71513;SDS011;59335;46.652;21.272;2023-03-03T05:12:26;11.13;;;6.45;;
71513;SDS011;59335;46.652;21.272;2023-03-03T05:15:29;10.68;;;6.25;;
71513;SDS011;59335;46.652;21.272;2023-03-03T05:18:32;10.60;;;6.07;;
71513;SDS011;59335;46.652;21.272;2023-03-03T05:21:35;8.97;;;5.90;;
71513;SDS011;59335;46.652;21.272;2023-03-03T05:24:39;10.45;;;6.32;;
71513;SDS011;59335;46.652;21.272;2023-03-03T05:27:45;9.27;;;6.47;;
71513;SDS011;59335;46.652;21.272;2023-03-03T05:30:48;10.43;;;6.10;;
71513;SDS011;59335;46.652;21.272;2023-03-03T05:33:50;9.98;;;6.25;;
71513;SDS011;59335;46.652;21.272;2023-03-03T05:36:53;9.67;;;6.10;;
71513;SDS011;59335;46.652;21.272;2023-03-03T05:39:55;9.88;;;5.85;;
71513;SDS011;59335;46.652;21.272;2023-03-03T05:42:58;10.55;;;6.30;;
71513;SDS011;59335;46.652;21.272;2023-03-03T05:46:02;9.70;;;5.82;;
71513;SDS011;59335;46.652;21.272;2023-03-03T05:49:05;11.65;;;6.75;;
71513;SDS011;59335;46.652;21.272;2023-03-03T05:52:08;16.10;;;6.60;;
71513;SDS011;59335;46.652;21.272;2023-03-03T05:55:11;10.55;;;5.75;;
71513;SDS011;59335;46.652;21.272;2023-03-03T05:58:13;9.75;;;5.88;;
71513;SDS011;59335;46.652;21.272;2023-03-03T06:01:16;9.93;;;5.75;;
71513;SDS011;59335;46.652;21.272;2023-03-03T06:04:19;10.45;;;6.30;;
71513;SDS011;59335;46.652;21.272;2023-03-03T06:07:21;9.17;;;5.57;;
71513;SDS011;59335;46.652;21.272;2023-03-03T06:10:24;8.75;;;5.47;;
71513;SDS011;59335;46.652;21.272;2023-03-03T06:13:30;9.82;;;6.28;;
71513;SDS011;59335;46.652;21.272;2023-03-03T06:16:34;8.73;;;5.43;;
71513;SDS011;59335;46.652;21.272;2023-03-03T06:19:37;10.10;;;5.95;;
71513;SDS011;59335;46.652;21.272;2023-03-03T06:22:40;8.57;;;6.43;;
71513;SDS011;59335;46.652;21.272;2023-03-03T06:25:43;9.48;;;5.88;;
71513;SDS011;59335;46.652;21.272;2023-03-03T06:28:46;9.10;;;5.45;;
71513;SDS011;59335;46.652;21.272;2023-03-03T06:31:51;9.13;;;5.70;;
71513;SDS011;59335;46.652;21.272;2023-03-03T06:34:54;10.30;;;6.30;;
71513;SDS011;59335;46.652;21.272;2023-03-03T06:37:57;11.37;;;5.80;;
71513;SDS011;59335;46.652;21.272;2023-03-03T06:41:00;11.00;;;5.80;;
71513;SDS011;59335;46.652;21.272;2023-03-03T06:44:06;10.82;;;5.88;;
71513;SDS011;59335;46.652;21.272;2023-03-03T06:47:09;11.45;;;5.65;;
71513;SDS011;59335;46.652;21.272;2023-03-03T06:50:12;9.52;;;5.43;;
71513;SDS011;59335;46.652;21.272;2023-03-03T06:53:16;11.23;;;5.70;;
71513;SDS011;59335;46.652;21.272;2023-03-03T06:56:19;11.32;;;6.05;;
71513;SDS011;59335;46.652;21.272;2023-03-03T06:59:23;11.65;;;5.95;;
71513;SDS011;59335;46.652;21.272;2023-03-03T07:02:26;10.02;;;5.45;;
71513;SDS011;59335;46.652;21.272;2023-03-03T07:05:28;11.23;;;5.80;;
71513;SDS011;59335;46.652;21.272;2023-03-03T07:08:32;8.97;;;5.57;;
71513;SDS011;59335;46.652;21.272;2023-03-03T07:11:36;9.73;;;6.07;;
71513;SDS011;59335;46.652;21.272;2023-03-03T07:14:42;12.93;;;5.63;;
71513;SDS011;59335;46.652;21.272;2023-03-03T07:17:48;10.23;;;5.45;;
71513;SDS011;59335;46.652;21.272;2023-03-03T07:20:54;11.52;;;6.18;;
71513;SDS011;59335;46.652;21.272;2023-03-03T07:23:57;10.10;;;6.30;;
71513;SDS011;59335;46.652;21.272;2023-03-03T07:30:29;9.30;;;5.25;;
71513;SDS011;59335;46.652;21.272;2023-03-03T07:33:34;10.63;;;5.72;;
71513;SDS011;59335;46.652;21.272;2023-03-03T07:36:45;9.48;;;5.65;;
71513;SDS011;59335;46.652;21.272;2023-03-03T07:39:48;10.17;;;5.63;;
71513;SDS011;59335;46.652;21.272;2023-03-03T07:42:51;9.65;;;5.68;;
71513;SDS011;59335;46.652;21.272;2023-03-03T07:46:23;11.43;;;5.55;;
71513;SDS011;59335;46.652;21.272;2023-03-03T07:49:33;10.82;;;5.18;;
71513;SDS011;59335;46.652;21.272;2023-03-03T07:52:48;10.98;;;5.95;;
71513;SDS011;59335;46.652;21.272;2023-03-03T07:55:58;10.03;;;5.70;;
71513;SDS011;59335;46.652;21.272;2023-03-03T07:59:02;13.98;;;5.70;;
71513;SDS011;59335;46.652;21.272;2023-03-03T08:02:29;12.20;;;5.55;;
71513;SDS011;59335;46.652;21.272;2023-03-03T08:06:53;12.35;;;5.75;;
71513;SDS011;59335;46.652;21.272;2023-03-03T08:09:49;11.57;;;5.70;;
71513;SDS011;59335;46.652;21.272;2023-03-03T08:12:58;9.40;;;5.60;;
71513;SDS011;59335;46.652;21.272;2023-03-03T08:19:12;10.55;;;5.88;;
71513;SDS011;59335;46.652;21.272;2023-03-03T08:22:23;11.63;;;5.70;;
71513;SDS011;59335;46.652;21.272;2023-03-03T08:25:36;13.90;;;5.95;;
71513;SDS011;59335;46.652;21.272;2023-03-03T08:28:41;10.70;;;5.60;;
71513;SDS011;59335;46.652;21.272;2023-03-03T08:31:44;10.93;;;5.53;;
71513;SDS011;59335;46.652;21.272;2023-03-03T08:34:47;10.90;;;5.28;;
71513;SDS011;59335;46.652;21.272;2023-03-03T08:37:50;11.68;;;5.60;;
71513;SDS011;59335;46.652;21.272;2023-03-03T08:40:54;11.10;;;5.50;;
71513;SDS011;59335;46.652;21.272;2023-03-03T08:43:57;12.37;;;5.67;;
71513;SDS011;59335;46.652;21.272;2023-03-03T08:47:01;14.88;;;7.88;;
71513;SDS011;59335;46.652;21.272;2023-03-03T08:50:04;15.30;;;8.77;;
71513;SDS011;59335;46.652;21.272;2023-03-03T08:53:08;16.92;;;10.80;;
71513;SDS011;59335;46.652;21.272;2023-03-03T08:56:12;17.25;;;8.98;;
71513;SDS011;59335;46.652;21.272;2023-03-03T08:59:15;15.67;;;7.47;;
71513;SDS011;59335;46.652;21.272;2023-03-03T09:02:18;12.63;;;7.25;;
71513;SDS011;59335;46.652;21.272;2023-03-03T09:05:22;14.60;;;6.82;;
71513;SDS011;59335;46.652;21.272;2023-03-03T09:08:26;10.57;;;6.43;;
71513;SDS011;59335;46.652;21.272;2023-03-03T09:11:29;12.13;;;6.57;;
71513;SDS011;59335;46.652;21.272;2023-03-03T09:14:32;10.13;;;5.77;;
71513;SDS011;59335;46.652;21.272;2023-03-03T09:17:36;13.05;;;6.05;;
71513;SDS011;59335;46.652;21.272;2023-03-03T09:20:40;11.48;;;6.20;;
71513;SDS011;59335;46.652;21.272;2023-03-03T09:23:57;10.98;;;6.07;;
71513;SDS011;59335;46.652;21.272;2023-03-03T09:27:01;11.88;;;6.25;;
71513;SDS011;59335;46.652;21.272;2023-03-03T09:30:44;11.57;;;5.70;;
71513;SDS011;59335;46.652;21.272;2023-03-03T09:33:51;11.85;;;5.93;;
71513;SDS011;59335;46.652;21.272;2023-03-03T09:37:01;10.43;;;6.18;;
71513;SDS011;59335;46.652;21.272;2023-03-03T09:44:50;14.57;;;6.50;;
71513;SDS011;59335;46.652;21.272;2023-03-03T10:01:33;11.05;;;5.70;;
71513;SDS011;59335;46.652;21.272;2023-03-03T10:18:46;14.85;;;6.35;;
71513;SDS011;59335;46.652;21.272;2023-03-03T10:33:01;11.15;;;5.72;;
71513;SDS011;59335;46.652;21.272;2023-03-03T10:43:24;12.27;;;5.72;;
71513;SDS011;59335;46.652;21.272;2023-03-03T10:54:19;14.57;;;6.15;;
71513;SDS011;59335;46.652;21.272;2023-03-03T10:57:59;16.30;;;5.83;;
71513;SDS011;59335;46.652;21.272;2023-03-03T11:01:24;11.25;;;5.60;;
71513;SDS011;59335;46.652;21.272;2023-03-03T11:08:27;13.73;;;5.38;;
71513;SDS011;59335;46.652;21.272;2023-03-03T11:11:52;11.98;;;5.97;;
71513;SDS011;59335;46.652;21.272;2023-03-03T11:25:07;14.35;;;5.35;;
71513;SDS011;59335;46.652;21.272;2023-03-03T11:41:31;12.10;;;5.97;;
71513;SDS011;59335;46.652;21.272;2023-03-03T11:45:05;11.55;;;5.50;;
71513;SDS011;59335;46.652;21.272;2023-03-03T11:48:54;12.70;;;5.43;;
71513;SDS011;59335;46.652;21.272;2023-03-03T11:52:09;14.60;;;5.35;;
71513;SDS011;59335;46.652;21.272;2023-03-03T11:58:49;12.50;;;5.90;;
71513;SDS011;59335;46.652;21.272;2023-03-03T12:05:37;12.40;;;5.40;;
71513;SDS011;59335;46.652;21.272;2023-03-03T12:09:06;11.45;;;5.35;;
71513;SDS011;59335;46.652;21.272;2023-03-03T12:12:22;12.75;;;5.57;;
71513;SDS011;59335;46.652;21.272;2023-03-03T12:22:30;14.63;;;5.13;;
71513;SDS011;59335;46.652;21.272;2023-03-03T12:35:51;12.32;;;5.60;;
71513;SDS011;59335;46.652;21.272;2023-03-03T12:39:06;14.27;;;5.57;;
71513;SDS011;59335;46.652;21.272;2023-03-03T12:49:41;18.80;;;5.80;;
71513;SDS011;59335;46.652;21.272;2023-03-03T12:56:25;13.43;;;5.40;;
71513;SDS011;59335;46.652;21.272;2023-03-03T12:59:49;12.05;;;5.85;;
71513;SDS011;59335;46.652;21.272;2023-03-03T13:16:11;14.25;;;5.22;;
71513;SDS011;59335;46.652;21.272;2023-03-03T13:19:24;13.73;;;5.32;;
71513;SDS011;59335;46.652;21.272;2023-03-03T13:32:22;16.45;;;5.70;;
71513;SDS011;59335;46.652;21.272;2023-03-03T13:38:59;13.27;;;5.28;;
71513;SDS011;59335;46.652;21.272;2023-03-03T13:52:10;16.05;;;5.30;;
71513;SDS011;59335;46.652;21.272;2023-03-03T13:58:46;13.07;;;5.30;;
71513;SDS011;59335;46.652;21.272;2023-03-03T14:05:37;11.80;;;5.68;;
71513;SDS011;59335;46.652;21.272;2023-03-03T14:12:21;14.77;;;5.68;;
71513;SDS011;59335;46.652;21.272;2023-03-03T14:18:35;17.33;;;5.53;;
71513;SDS011;59335;46.652;21.272;2023-03-03T14:25:02;12.77;;;5.78;;
71513;SDS011;59335;46.652;21.272;2023-03-03T14:28:11;14.90;;;5.90;;
71513;SDS011;59335;46.652;21.272;2023-03-03T14:31:25;13.07;;;5.28;;
71513;SDS011;59335;46.652;21.272;2023-03-03T14:34:37;12.07;;;5.37;;
71513;SDS011;59335;46.652;21.272;2023-03-03T14:37:43;17.40;;;5.50;;
71513;SDS011;59335;46.652;21.272;2023-03-03T14:40:47;14.02;;;5.13;;
71513;SDS011;59335;46.652;21.272;2023-03-03T14:43:56;11.40;;;5.70;;
71513;SDS011;59335;46.652;21.272;2023-03-03T14:47:22;12.63;;;5.30;;
71513;SDS011;59335;46.652;21.272;2023-03-03T14:53:41;12.00;;;5.43;;
71513;SDS011;59335;46.652;21.272;2023-03-03T15:03:30;14.10;;;5.40;;
71513;SDS011;59335;46.652;21.272;2023-03-03T15:06:34;13.67;;;4.90;;
71513;SDS011;59335;46.652;21.272;2023-03-03T15:09:47;12.63;;;5.18;;
71513;SDS011;59335;46.652;21.272;2023-03-03T15:12:51;16.27;;;5.43;;
71513;SDS011;59335;46.652;21.272;2023-03-03T15:19:07;13.35;;;5.22;;
71513;SDS011;59335;46.652;21.272;2023-03-03T15:25:56;15.50;;;5.57;;
71513;SDS011;59335;46.652;21.272;2023-03-03T15:29:06;13.38;;;5.60;;
71513;SDS011;59335;46.652;21.272;2023-03-03T15:35:35;11.93;;;5.53;;
71513;SDS011;59335;46.652;21.272;2023-03-03T15:38:47;12.30;;;4.93;;
71513;SDS011;59335;46.652;21.272;2023-03-03T15:42:03;15.27;;;5.90;;
71513;SDS011;59335;46.652;21.272;2023-03-03T15:49:12;21.00;;;6.18;;
71513;SDS011;59335;46.652;21.272;2023-03-03T15:52:36;14.93;;;5.47;;
71513;SDS011;59335;46.652;21.272;2023-03-03T16:02:20;12.93;;;5.97;;
71513;SDS011;59335;46.652;21.272;2023-03-03T16:05:32;14.55;;;5.65;;
71513;SDS011;59335;46.652;21.272;2023-03-03T16:08:59;15.00;;;6.05;;
71513;SDS011;59335;46.652;21.272;2023-03-03T16:12:24;14.50;;;5.50;;
71513;SDS011;59335;46.652;21.272;2023-03-03T16:15:43;15.90;;;5.63;;
71513;SDS011;59335;46.652;21.272;2023-03-03T16:22:29;14.15;;;5.68;;
71513;SDS011;59335;46.652;21.272;2023-03-03T16:32:39;15.00;;;5.45;;
71513;SDS011;59335;46.652;21.272;2023-03-03T16:35:50;16.63;;;5.85;;
71513;SDS011;59335;46.652;21.272;2023-03-03T16:39:05;16.48;;;6.10;;
71513;SDS011;59335;46.652;21.272;2023-03-03T16:42:16;15.80;;;6.28;;
71513;SDS011;59335;46.652;21.272;2023-03-03T16:45:35;12.27;;;6.13;;
71513;SDS011;59335;46.652;21.272;2023-03-03T16:55:25;16.10;;;6.10;;
71513;SDS011;59335;46.652;21.272;2023-03-03T17:05:42;13.48;;;6.60;;
71513;SDS011;59335;46.652;21.272;2023-03-03T17:09:21;17.52;;;6.90;;
71513;SDS011;59335;46.652;21.272;2023-03-03T17:12:51;14.52;;;6.28;;
71513;SDS011;59335;46.652;21.272;2023-03-03T17:16:05;14.38;;;6.53;;
71513;SDS011;59335;46.652;21.272;2023-03-03T17:26:03;12.15;;;5.88;;
71513;SDS011;59335;46.652;21.272;2023-03-03T17:33:14;13.25;;;6.35;;
71513;SDS011;59335;46.652;21.272;2023-03-03T17:36:36;12.73;;;6.23;;
71513;SDS011;59335;46.652;21.272;2023-03-03T17:43:16;15.48;;;6.38;;
71513;SDS011;59335;46.652;21.272;2023-03-03T17:53:00;12.83;;;6.40;;
71513;SDS011;59335;46.652;21.272;2023-03-03T17:56:24;14.57;;;6.97;;
71513;SDS011;59335;46.652;21.272;2023-03-03T18:20:18;12.20;;;7.18;;
71513;SDS011;59335;46.652;21.272;2023-03-03T18:26:49;13.07;;;6.87;;
71513;SDS011;59335;46.652;21.272;2023-03-03T18:36:50;13.43;;;7.00;;
71513;SDS011;59335;46.652;21.272;2023-03-03T18:47:02;12.10;;;7.00;;
71513;SDS011;59335;46.652;21.272;2023-03-03T18:53:50;16.17;;;8.40;;
71513;SDS011;59335;46.652;21.272;2023-03-03T18:57:24;12.50;;;7.78;;
71513;SDS011;59335;46.652;21.272;2023-03-03T19:00:28;17.87;;;9.80;;
71513;SDS011;59335;46.652;21.272;2023-03-03T19:09:59;23.05;;;11.77;;
71513;SDS011;59335;46.652;21.272;2023-03-03T19:16:37;22.53;;;11.70;;
71513;SDS011;59335;46.652;21.272;2023-03-03T19:23:20;21.27;;;10.48;;
71513;SDS011;59335;46.652;21.272;2023-03-03T19:26:55;17.70;;;10.02;;
71513;SDS011;59335;46.652;21.272;2023-03-03T19:30:06;17.20;;;10.02;;
71513;SDS011;59335;46.652;21.272;2023-03-03T19:33:36;18.73;;;9.97;;
71513;SDS011;59335;46.652;21.272;2023-03-03T19:39:59;20.10;;;10.38;;
71513;SDS011;59335;46.652;21.272;2023-03-03T19:56:41;20.35;;;11.40;;
71513;SDS011;59335;46.652;21.272;2023-03-03T19:59:52;20.00;;;11.10;;
71513;SDS011;59335;46.652;21.272;2023-03-03T20:13:41;19.27;;;11.75;;
71513;SDS011;59335;46.652;21.272;2023-03-03T20:31:04;21.30;;;11.98;;
71513;SDS011;59335;46.652;21.272;2023-03-03T20:41:09;19.33;;;11.67;;
71513;SDS011;59335;46.652;21.272;2023-03-03T20:51:49;19.27;;;11.95;;
71513;SDS011;59335;46.652;21.272;2023-03-03T21:05:17;21.80;;;12.63;;
71513;SDS011;59335;46.652;21.272;2023-03-03T21:11:57;20.65;;;11.90;;
71513;SDS011;59335;46.652;21.272;2023-03-03T21:15:25;18.67;;;11.97;;
71513;SDS011;59335;46.652;21.272;2023-03-03T21:18:36;20.27;;;12.55;;
71513;SDS011;59335;46.652;21.272;2023-03-03T21:21:41;18.23;;;11.48;;
71513;SDS011;59335;46.652;21.272;2023-03-03T21:24:53;21.80;;;12.18;;
71513;SDS011;59335;46.652;21.272;2023-03-03T21:31:22;19.90;;;11.90;;
71513;SDS011;59335;46.652;21.272;2023-03-03T21:34:27;19.60;;;11.63;;
71513;SDS011;59335;46.652;21.272;2023-03-03T21:41:01;19.55;;;12.25;;
71513;SDS011;59335;46.652;21.272;2023-03-03T21:44:27;20.50;;;12.30;;
71513;SDS011;59335;46.652;21.272;2023-03-03T21:47:38;17.37;;;11.60;;
71513;SDS011;59335;46.652;21.272;2023-03-03T21:50:41;20.38;;;12.13;;
71513;SDS011;59335;46.652;21.272;2023-03-03T21:53:45;20.27;;;12.15;;
71513;SDS011;59335;46.652;21.272;2023-03-03T21:56:49;19.55;;;12.32;;
71513;SDS011;59335;46.652;21.272;2023-03-03T21:59:52;20.60;;;12.73;;
71513;SDS011;59335;46.652;21.272;2023-03-03T22:02:55;18.30;;;11.37;;
71513;SDS011;59335;46.652;21.272;2023-03-03T22:05:58;18.60;;;11.48;;
71513;SDS011;59335;46.652;21.272;2023-03-03T22:09:02;18.13;;;12.05;;
71513;SDS011;59335;46.652;21.272;2023-03-03T22:12:06;19.55;;;11.52;;
71513;SDS011;59335;46.652;21.272;2023-03-03T22:15:09;18.55;;;11.45;;
71513;SDS011;59335;46.652;21.272;2023-03-03T22:18:12;17.53;;;11.80;;
71513;SDS011;59335;46.652;21.272;2023-03-03T22:21:16;21.63;;;12.52;;
71513;SDS011;59335;46.652;21.272;2023-03-03T22:24:19;19.00;;;12.40;;
71513;SDS011;59335;46.652;21.272;2023-03-03T22:27:22;17.42;;;11.32;;
71513;SDS011;59335;46.652;21.272;2023-03-03T22:30:25;18.75;;;11.13;;
71513;SDS011;59335;46.652;21.272;2023-03-03T22:33:27;18.37;;;11.43;;
71513;SDS011;59335;46.652;21.272;2023-03-03T22:36:30;17.02;;;11.60;;
71513;SDS011;59335;46.652;21.272;2023-03-03T22:39:33;18.40;;;11.60;;
71513;SDS011;59335;46.652;21.272;2023-03-03T22:42:35;20.00;;;11.38;;
71513;SDS011;59335;46.652;21.272;2023-03-03T22:45:38;18.05;;;12.00;;
71513;SDS011;59335;46.652;21.272;2023-03-03T22:48:41;17.73;;;10.93;;
71513;SDS011;59335;46.652;21.272;2023-03-03T22:51:44;18.80;;;11.18;;
71513;SDS011;59335;46.652;21.272;2023-03-03T22:54:46;17.58;;;10.93;;
71513;SDS011;59335;46.652;21.272;2023-03-03T22:57:49;16.67;;;10.75;;
71513;SDS011;59335;46.652;21.272;2023-03-03T23:00:52;19.27;;;10.80;;
71513;SDS011;59335;46.652;21.272;2023-03-03T23:03:55;18.00;;;11.17;;
71513;SDS011;59335;46.652;21.272;2023-03-03T23:06:59;17.58;;;10.60;;
71513;SDS011;59335;46.652;21.272;2023-03-03T23:10:02;16.75;;;10.88;;
71513;SDS011;59335;46.652;21.272;2023-03-03T23:13:06;16.95;;;10.90;;
71513;SDS011;59335;46.652;21.272;2023-03-03T23:16:09;16.25;;;10.88;;
71513;SDS011;59335;46.652;21.272;2023-03-03T23:19:12;16.13;;;10.40;;
71513;SDS011;59335;46.652;21.272;2023-03-03T23:22:15;16.98;;;11.45;;
71513;SDS011;59335;46.652;21.272;2023-03-03T23:25:18;16.02;;;10.63;;
71513;SDS011;59335;46.652;21.272;2023-03-03T23:28:21;17.25;;;10.88;;
71513;SDS011;59335;46.652;21.272;2023-03-03T23:31:24;17.92;;;10.77;;
71513;SDS011;59335;46.652;21.272;2023-03-03T23:34:27;18.17;;;11.47;;
71513;SDS011;59335;46.652;21.272;2023-03-03T23:37:30;18.02;;;10.70;;
71513;SDS011;59335;46.652;21.272;2023-03-03T23:40:33;17.33;;;11.70;;
71513;SDS011;59335;46.652;21.272;2023-03-03T23:43:36;19.67;;;12.43;;
71513;SDS011;59335;46.652;21.272;2023-03-03T23:46:39;18.58;;;11.60;;
71513;SDS011;59335;46.652;21.272;2023-03-03T23:49:42;19.17;;;11.20;;
71513;SDS011;59335;46.652;21.272;2023-03-03T23:52:45;17.30;;;11.55;;
71513;SDS011;59335;46.652;21.272;2023-03-03T23:55:48;17.40;;;11.32;;
71513;SDS011;59335;46.652;21.272;2023-03-03T23:58:51;18.88;;;11.27;;
